createdAt,value
2017-12-23T00:01:43.819Z,4.00
2017-12-23T00:04:12.197Z,3.90
2017-12-23T00:06:40.657Z,4.00
2017-12-23T00:09:09.260Z,4.10
2017-12-23T00:11:37.664Z,4.30
2017-12-23T00:14:06.121Z,4.30
2017-12-23T00:16:34.681Z,4.20
2017-12-23T00:19:03.067Z,4.20
2017-12-23T00:21:31.618Z,4.30
2017-12-23T00:24:00.068Z,4.30
2017-12-23T00:26:29.229Z,4.30
2017-12-23T00:28:57.615Z,4.30
2017-12-23T00:31:26.409Z,4.30
2017-12-23T00:33:54.806Z,4.40
2017-12-23T00:36:23.955Z,4.30
2017-12-23T00:38:52.546Z,4.30
2017-12-23T00:41:20.980Z,4.10
2017-12-23T00:43:49.394Z,4.00
2017-12-23T00:46:18.027Z,4.10
2017-12-23T00:48:46.493Z,4.00
2017-12-23T00:51:14.900Z,4.10
2017-12-23T00:53:44.117Z,4.20
2017-12-23T00:56:12.526Z,4.20
2017-12-23T00:58:41.810Z,4.20
2017-12-23T01:01:10.260Z,4.20
2017-12-23T01:03:39.936Z,4.40
2017-12-23T01:06:08.331Z,4.40
2017-12-23T01:08:36.819Z,4.40
2017-12-23T01:11:05.249Z,4.20
2017-12-23T01:13:33.637Z,4.00
2017-12-23T01:16:02.177Z,3.90
2017-12-23T01:18:31.362Z,3.90
2017-12-23T01:21:00.547Z,3.80
2017-12-23T01:23:29.212Z,3.80
2017-12-23T01:25:57.599Z,3.80
2017-12-23T01:28:25.988Z,3.80
2017-12-23T01:30:54.478Z,3.90
2017-12-23T01:33:22.915Z,4.00
2017-12-23T01:35:51.427Z,3.90
2017-12-23T01:38:20.015Z,4.00
2017-12-23T01:40:48.428Z,4.10
2017-12-23T01:43:17.763Z,4.10
2017-12-23T01:45:46.514Z,4.10
2017-12-23T01:48:27.639Z,4.10
2017-12-23T01:50:56.167Z,4.10
2017-12-23T01:53:24.544Z,4.10
2017-12-23T01:55:52.958Z,4.10
2017-12-23T01:58:21.544Z,4.10
2017-12-23T02:00:49.942Z,4.00
2017-12-23T02:03:18.341Z,4.00
2017-12-23T02:05:47.192Z,4.00
2017-12-23T02:08:15.616Z,4.00
2017-12-23T02:10:44.064Z,4.00
2017-12-23T02:13:12.618Z,4.00
2017-12-23T02:15:41.777Z,4.00
2017-12-23T02:18:10.224Z,4.00
2017-12-23T02:20:38.667Z,4.10
2017-12-23T02:23:07.320Z,4.00
2017-12-23T02:25:36.472Z,4.10
2017-12-23T02:28:05.863Z,4.20
2017-12-23T02:30:35.069Z,4.30
2017-12-23T02:33:03.459Z,4.20
2017-12-23T02:35:32.061Z,4.20
2017-12-23T02:38:00.487Z,4.20
2017-12-23T02:40:28.878Z,4.20
2017-12-23T02:42:58.190Z,4.30
2017-12-23T02:45:27.366Z,4.30
2017-12-23T02:47:56.053Z,4.30
2017-12-23T02:50:25.671Z,4.40
2017-12-23T02:52:54.847Z,4.30
2017-12-23T02:55:23.251Z,4.40
2017-12-23T02:57:52.605Z,4.30
2017-12-23T03:00:21.001Z,4.30
2017-12-23T03:02:49.410Z,4.30
2017-12-23T03:05:19.530Z,4.30
2017-12-23T03:07:48.917Z,4.30
2017-12-23T03:10:17.321Z,4.30
2017-12-23T03:12:46.616Z,4.30
2017-12-23T03:15:15.056Z,4.30
2017-12-23T03:17:43.467Z,4.40
2017-12-23T03:20:12.823Z,4.40
2017-12-23T03:22:41.205Z,4.40
2017-12-23T03:25:09.688Z,4.40
2017-12-23T03:27:38.271Z,4.30
2017-12-23T03:30:06.667Z,4.40
2017-12-23T03:32:35.099Z,4.30
2017-12-23T03:35:03.634Z,4.30
2017-12-23T03:37:32.151Z,4.40
2017-12-23T03:40:00.586Z,4.40
2017-12-23T03:42:29.010Z,4.40
2017-12-23T03:44:57.369Z,4.50
2017-12-23T03:47:26.516Z,4.50
2017-12-23T03:49:55.566Z,4.50
2017-12-23T03:52:23.956Z,4.40
2017-12-23T03:54:52.337Z,4.50
2017-12-23T03:57:20.779Z,4.50
2017-12-23T03:59:50.097Z,4.50
2017-12-23T04:02:18.541Z,4.40
2017-12-23T04:04:47.126Z,4.50
2017-12-23T04:07:15.517Z,4.60
2017-12-23T04:09:45.095Z,4.60
2017-12-23T04:12:13.723Z,4.60
2017-12-23T04:14:42.888Z,4.70
2017-12-23T04:17:11.279Z,4.70
2017-12-23T04:19:39.728Z,4.80
2017-12-23T04:22:08.195Z,4.80
2017-12-23T04:24:36.579Z,4.80
2017-12-23T04:27:05.427Z,4.90
2017-12-23T04:29:34.578Z,4.90
2017-12-23T04:32:02.989Z,4.90
2017-12-23T04:34:32.293Z,5.00
2017-12-23T04:37:01.468Z,5.10
2017-12-23T04:39:29.878Z,5.00
2017-12-23T04:41:59.080Z,5.10
2017-12-23T04:44:28.229Z,5.20
2017-12-23T04:46:56.618Z,5.20
2017-12-23T04:49:25.116Z,5.20
2017-12-23T04:51:53.875Z,5.30
2017-12-23T04:54:22.303Z,5.30
2017-12-23T04:56:51.485Z,5.30
2017-12-23T04:59:20.657Z,5.30
2017-12-23T05:01:49.051Z,5.30
2017-12-23T05:04:17.611Z,5.30
2017-12-23T05:06:45.981Z,5.30
2017-12-23T05:09:14.368Z,5.40
2017-12-23T05:11:43.410Z,5.30
2017-12-23T05:14:12.572Z,5.40
2017-12-23T05:16:40.979Z,5.40
2017-12-23T05:19:10.318Z,5.50
2017-12-23T05:21:38.744Z,5.50
2017-12-23T05:24:07.914Z,5.50
2017-12-23T05:26:36.371Z,5.50
2017-12-23T05:29:04.822Z,5.50
2017-12-23T05:31:33.983Z,5.50
2017-12-23T05:34:02.580Z,5.50
2017-12-23T05:36:31.738Z,5.50
2017-12-23T05:39:00.150Z,5.50
2017-12-23T05:41:28.723Z,5.60
2017-12-23T05:43:57.122Z,5.60
2017-12-23T05:46:26.273Z,5.70
2017-12-23T05:48:54.825Z,5.70
2017-12-23T05:51:23.217Z,5.70
2017-12-23T05:53:51.643Z,5.70
2017-12-23T05:56:20.139Z,5.80
2017-12-23T05:58:49.336Z,5.90
2017-12-23T06:01:18.478Z,5.90
2017-12-23T06:03:46.897Z,5.90
2017-12-23T06:06:15.306Z,5.90
2017-12-23T06:08:44.009Z,6.00
2017-12-23T06:11:12.453Z,5.90
2017-12-23T06:13:41.925Z,6.00
2017-12-23T06:16:10.322Z,6.00
2017-12-23T06:18:38.880Z,6.00
2017-12-23T06:21:08.848Z,6.00
2017-12-23T06:23:38.034Z,6.00
2017-12-23T06:26:06.601Z,6.00
2017-12-23T06:28:35.057Z,6.10
2017-12-23T06:31:03.525Z,6.10
2017-12-23T06:33:31.954Z,6.10
2017-12-23T06:36:00.348Z,6.10
2017-12-23T06:38:29.495Z,6.10
2017-12-23T06:40:58.004Z,6.10
2017-12-23T06:43:26.411Z,6.10
2017-12-23T06:45:55.570Z,6.20
2017-12-23T06:48:24.017Z,6.20
2017-12-23T06:50:52.420Z,6.20
2017-12-23T06:53:20.851Z,6.30
2017-12-23T06:55:50.200Z,6.30
2017-12-23T06:58:18.602Z,6.30
2017-12-23T07:00:47.014Z,6.30
2017-12-23T07:03:16.499Z,6.30
2017-12-23T07:05:44.882Z,6.30
2017-12-23T07:08:13.323Z,6.40
2017-12-23T07:10:42.915Z,6.40
2017-12-23T07:13:11.323Z,6.50
2017-12-23T07:15:40.050Z,6.50
2017-12-23T07:18:10.225Z,6.60
2017-12-23T07:20:38.674Z,6.60
2017-12-23T07:23:07.106Z,6.60
2017-12-23T07:25:35.538Z,6.60
2017-12-23T07:28:03.972Z,6.60
2017-12-23T07:30:33.178Z,6.60
2017-12-23T07:33:02.876Z,6.60
2017-12-23T07:35:31.267Z,6.60
2017-12-23T07:38:00.446Z,6.60
2017-12-23T07:40:29.028Z,6.60
2017-12-23T07:42:57.418Z,6.60
2017-12-23T07:45:25.829Z,6.70
2017-12-23T07:47:54.324Z,6.70
2017-12-23T07:50:22.705Z,6.70
2017-12-23T07:52:51.115Z,6.70
2017-12-23T07:55:19.558Z,6.70
2017-12-23T07:57:47.998Z,6.80
2017-12-23T08:00:17.204Z,6.80
2017-12-23T08:02:46.393Z,6.90
2017-12-23T08:05:14.843Z,6.90
2017-12-23T08:07:43.254Z,7.00
2017-12-23T08:10:11.850Z,7.00
2017-12-23T08:12:41.002Z,7.10
2017-12-23T08:15:09.390Z,7.10
2017-12-23T08:17:38.249Z,7.10
2017-12-23T08:20:06.643Z,7.10
2017-12-23T08:22:35.049Z,7.20
2017-12-23T08:25:03.499Z,7.20
2017-12-23T08:27:31.968Z,7.30
2017-12-23T08:30:00.357Z,7.40
2017-12-23T08:32:28.915Z,7.40
2017-12-23T08:34:57.371Z,7.40
2017-12-23T08:37:26.541Z,7.50
2017-12-23T08:39:55.059Z,7.50
2017-12-23T08:42:24.230Z,7.50
2017-12-23T08:44:52.631Z,7.50
2017-12-23T08:47:21.842Z,7.50
2017-12-23T08:49:51.083Z,7.50
2017-12-23T08:52:20.081Z,7.60
2017-12-23T08:54:48.574Z,7.70
2017-12-23T08:57:17.041Z,7.80
2017-12-23T08:59:45.571Z,7.80
2017-12-23T09:02:14.121Z,7.80
2017-12-23T09:04:42.806Z,7.80
2017-12-23T09:07:11.229Z,7.90
2017-12-23T09:09:40.881Z,7.90
2017-12-23T09:12:09.297Z,7.90
2017-12-23T09:14:37.781Z,8.00
2017-12-23T09:17:07.008Z,7.90
2017-12-23T09:19:35.953Z,7.90
2017-12-23T09:22:04.341Z,8.00
2017-12-23T09:24:32.928Z,8.10
2017-12-23T09:27:01.311Z,8.10
2017-12-23T09:29:30.520Z,8.20
2017-12-23T09:31:59.818Z,8.20
2017-12-23T09:34:28.950Z,8.20
2017-12-23T09:36:57.421Z,8.20
2017-12-23T09:39:25.845Z,8.20
2017-12-23T09:41:54.358Z,8.30
2017-12-23T09:44:23.502Z,8.20
2017-12-23T09:46:51.936Z,8.20
2017-12-23T09:49:20.394Z,8.30
2017-12-23T09:51:48.876Z,8.30
2017-12-23T09:54:18.266Z,8.30
2017-12-23T09:56:46.663Z,8.30
2017-12-23T09:59:15.047Z,8.30
2017-12-23T10:01:44.386Z,8.40
2017-12-23T10:04:12.775Z,8.30
2017-12-23T10:06:41.241Z,8.30
2017-12-23T10:09:09.796Z,8.30
2017-12-23T10:11:38.992Z,8.40
2017-12-23T10:14:08.238Z,8.40
2017-12-23T10:16:36.853Z,8.40
2017-12-23T10:19:05.251Z,8.40
2017-12-23T10:21:34.684Z,8.40
2017-12-23T10:24:03.225Z,8.40
2017-12-23T10:26:31.648Z,8.50
2017-12-23T10:29:00.098Z,8.50
2017-12-23T10:31:29.455Z,8.50
2017-12-23T10:33:57.867Z,8.50
2017-12-23T10:36:26.284Z,8.50
2017-12-23T10:38:55.106Z,8.50
2017-12-23T10:41:23.532Z,8.60
2017-12-23T10:43:52.716Z,8.60
2017-12-23T10:46:21.434Z,8.60
2017-12-23T10:48:50.807Z,8.60
2017-12-23T10:51:19.243Z,8.60
2017-12-23T10:53:47.990Z,8.70
2017-12-23T10:56:16.514Z,8.70
2017-12-23T10:58:45.940Z,8.70
2017-12-23T11:01:14.392Z,8.70
2017-12-23T11:03:42.834Z,8.80
2017-12-23T11:06:12.008Z,8.80
2017-12-23T11:08:40.476Z,8.90
2017-12-23T11:11:08.959Z,8.80
2017-12-23T11:13:37.411Z,8.80
2017-12-23T11:16:06.183Z,8.90
2017-12-23T11:18:35.536Z,8.90
2017-12-23T11:21:03.915Z,8.90
2017-12-23T11:23:33.750Z,8.90
2017-12-23T11:26:02.168Z,8.90
2017-12-23T11:28:30.590Z,8.90
2017-12-23T11:31:00.124Z,8.90
2017-12-23T11:33:29.905Z,9.00
2017-12-23T11:35:58.308Z,9.00
2017-12-23T11:38:27.642Z,9.00
2017-12-23T11:40:56.099Z,9.00
2017-12-23T11:43:25.374Z,9.00
2017-12-23T11:45:53.892Z,9.00
2017-12-23T11:48:22.341Z,9.10
2017-12-23T11:50:50.724Z,9.10
2017-12-23T11:53:19.460Z,9.10
2017-12-23T11:55:48.952Z,9.10
2017-12-23T11:58:17.384Z,9.10
2017-12-23T12:00:46.733Z,9.20
2017-12-23T12:03:15.160Z,9.10
2017-12-23T12:05:43.708Z,9.10
2017-12-23T12:08:12.288Z,9.10
2017-12-23T12:10:40.666Z,9.20
2017-12-23T12:13:09.100Z,9.10
2017-12-23T12:15:38.328Z,9.20
2017-12-23T12:18:06.784Z,9.10
2017-12-23T12:20:36.402Z,9.10
2017-12-23T12:23:05.670Z,9.10
2017-12-23T12:25:34.428Z,9.10
2017-12-23T12:28:03.587Z,9.10
2017-12-23T12:30:32.919Z,9.10
2017-12-23T12:33:01.311Z,9.10
2017-12-23T12:35:29.711Z,9.10
2017-12-23T12:37:58.300Z,9.10
2017-12-23T12:40:26.691Z,9.10
2017-12-23T12:42:55.137Z,9.10
2017-12-23T12:45:23.662Z,9.10
2017-12-23T12:47:52.828Z,9.10
2017-12-23T12:50:21.208Z,9.10
2017-12-23T12:52:49.631Z,9.00
2017-12-23T12:55:18.833Z,9.00
2017-12-23T12:57:47.245Z,9.00
2017-12-23T13:00:15.959Z,8.90
2017-12-23T13:02:44.371Z,8.90
2017-12-23T13:05:12.802Z,8.90
2017-12-23T13:07:41.707Z,8.90
2017-12-23T13:10:10.101Z,8.80
2017-12-23T13:12:38.471Z,8.80
2017-12-23T13:15:07.001Z,8.80
2017-12-23T13:17:35.400Z,8.80
2017-12-23T13:20:03.868Z,8.80
2017-12-23T13:22:32.422Z,8.80
2017-12-23T13:25:01.608Z,8.80
2017-12-23T13:27:30.170Z,8.80
2017-12-23T13:29:59.060Z,8.80
2017-12-23T13:32:28.254Z,8.80
2017-12-23T13:34:56.678Z,8.80
2017-12-23T13:37:25.124Z,8.80
2017-12-23T13:39:53.559Z,8.80
2017-12-23T13:42:22.001Z,8.80
2017-12-23T13:44:51.615Z,8.80
2017-12-23T13:47:20.036Z,8.70
2017-12-23T13:49:48.431Z,8.70
2017-12-23T13:52:16.966Z,8.70
2017-12-23T13:54:45.348Z,8.70
2017-12-23T13:57:13.822Z,8.70
2017-12-23T13:59:43.023Z,8.70
2017-12-23T14:02:11.422Z,8.70
2017-12-23T14:04:39.815Z,8.70
2017-12-23T14:07:08.568Z,8.70
2017-12-23T14:09:37.268Z,8.70
2017-12-23T14:12:05.660Z,8.70
2017-12-23T14:14:34.396Z,8.70
2017-12-23T14:17:02.771Z,8.70
2017-12-23T14:19:31.927Z,8.70
2017-12-23T14:22:00.532Z,8.70
2017-12-23T14:24:28.928Z,8.70
2017-12-23T14:26:58.131Z,8.70
2017-12-23T14:29:28.016Z,8.70
2017-12-23T14:31:56.412Z,8.60
2017-12-23T14:34:24.816Z,8.70
2017-12-23T14:36:54.143Z,8.70
2017-12-23T14:39:22.584Z,8.70
2017-12-23T14:41:51.743Z,8.70
2017-12-23T14:44:20.187Z,8.70
2017-12-23T14:46:48.953Z,8.60
2017-12-23T14:49:18.240Z,8.70
2017-12-23T14:51:48.310Z,8.60
2017-12-23T14:54:16.722Z,8.60
2017-12-23T14:56:45.135Z,8.70
2017-12-23T14:59:14.521Z,8.60
2017-12-23T15:01:43.687Z,8.70
2017-12-23T15:04:12.089Z,8.70
2017-12-23T15:06:41.307Z,8.60
2017-12-23T15:09:10.493Z,8.60
2017-12-23T15:11:39.183Z,8.60
2017-12-23T15:14:08.553Z,8.60
2017-12-23T15:16:36.956Z,8.60
2017-12-23T15:19:05.959Z,8.60
2017-12-23T15:21:35.538Z,8.60
2017-12-23T15:24:04.049Z,8.60
2017-12-23T15:26:33.271Z,8.60
2017-12-23T15:29:02.001Z,8.60
2017-12-23T15:31:30.661Z,8.60
2017-12-23T15:33:59.061Z,8.60
2017-12-23T15:36:27.685Z,8.60
2017-12-23T15:38:56.844Z,8.60
2017-12-23T15:41:25.252Z,8.60
2017-12-23T15:43:53.672Z,8.60
2017-12-23T15:46:22.073Z,8.60
2017-12-23T15:48:50.560Z,8.60
2017-12-23T15:51:19.003Z,8.60
2017-12-23T15:53:47.390Z,8.60
2017-12-23T15:56:15.824Z,8.60
2017-12-23T15:58:44.418Z,8.60
2017-12-23T16:01:13.628Z,8.60
2017-12-23T16:03:42.035Z,8.60
2017-12-23T16:06:10.879Z,8.60
2017-12-23T16:08:39.271Z,8.60
2017-12-23T16:11:08.418Z,8.60
2017-12-23T16:13:37.059Z,8.60
2017-12-23T16:16:06.249Z,8.50
2017-12-23T16:18:35.411Z,8.50
2017-12-23T16:21:03.938Z,8.50
2017-12-23T16:23:33.120Z,8.50
2017-12-23T16:26:01.515Z,8.50
2017-12-23T16:28:31.503Z,8.50
2017-12-23T16:30:59.924Z,8.50
2017-12-23T16:33:28.745Z,8.50
2017-12-23T16:35:57.476Z,8.50
2017-12-23T16:38:26.648Z,8.50
2017-12-23T16:40:55.047Z,8.40
2017-12-23T16:43:24.368Z,8.40
2017-12-23T16:45:52.770Z,8.40
2017-12-23T16:48:21.158Z,8.50
2017-12-23T16:50:50.313Z,8.50
2017-12-23T16:53:19.532Z,8.50
2017-12-23T16:55:47.958Z,8.40
2017-12-23T16:58:16.399Z,8.50
2017-12-23T17:00:44.791Z,8.50
2017-12-23T17:03:14.127Z,8.50
2017-12-23T17:05:42.657Z,8.50
2017-12-23T17:08:11.066Z,8.50
2017-12-23T17:10:39.495Z,8.50
2017-12-23T17:13:07.944Z,8.60
2017-12-23T17:15:36.629Z,8.60
2017-12-23T17:18:05.027Z,8.50
2017-12-23T17:20:34.241Z,8.60
2017-12-23T17:23:03.451Z,8.60
2017-12-23T17:25:31.846Z,8.50
2017-12-23T17:28:00.439Z,8.60
2017-12-23T17:30:35.243Z,8.60
2017-12-23T17:33:04.562Z,8.60
2017-12-23T17:35:33.376Z,8.60
2017-12-23T17:38:01.892Z,8.60
2017-12-23T17:40:31.122Z,8.70
2017-12-23T17:42:59.534Z,8.70
2017-12-23T17:45:27.959Z,8.70
2017-12-23T17:47:56.733Z,8.60
2017-12-23T17:50:26.005Z,8.70
2017-12-23T17:52:54.532Z,8.70
2017-12-23T17:55:22.974Z,8.70
2017-12-23T17:57:51.378Z,8.70
2017-12-23T18:00:19.776Z,8.70
2017-12-23T18:02:48.406Z,8.80
2017-12-23T18:05:16.796Z,8.80
2017-12-23T18:07:45.195Z,8.80
2017-12-23T18:10:14.408Z,8.80
2017-12-23T18:12:43.561Z,8.80
2017-12-23T18:15:12.014Z,8.70
2017-12-23T18:17:40.785Z,8.80
2017-12-23T18:20:09.484Z,8.80
2017-12-23T18:22:37.843Z,8.80
2017-12-23T18:25:06.704Z,8.80
2017-12-23T18:27:35.512Z,8.80
2017-12-23T18:30:04.696Z,8.80
2017-12-23T18:32:34.068Z,8.90
2017-12-23T18:35:02.474Z,8.90
2017-12-23T18:37:31.961Z,8.90
2017-12-23T18:40:01.192Z,8.80
2017-12-23T18:42:31.192Z,8.90
2017-12-23T18:44:59.608Z,8.80
2017-12-23T18:47:28.173Z,8.90
2017-12-23T18:49:57.316Z,8.90
2017-12-23T18:52:25.819Z,8.90
2017-12-23T18:54:54.638Z,8.90
2017-12-23T18:57:23.892Z,8.90
2017-12-23T18:59:52.391Z,8.90
2017-12-23T19:02:20.917Z,9.00
2017-12-23T19:04:49.316Z,9.00
2017-12-23T19:07:17.731Z,9.00
2017-12-23T19:09:46.299Z,9.00
2017-12-23T19:12:14.736Z,9.00
2017-12-23T19:14:43.115Z,8.90
2017-12-23T19:17:11.587Z,8.90
2017-12-23T19:19:40.756Z,8.90
2017-12-23T19:22:09.243Z,8.90
2017-12-23T19:24:37.792Z,8.90
2017-12-23T19:27:06.185Z,8.90
2017-12-23T19:29:34.690Z,9.00
2017-12-23T19:32:03.354Z,9.00
2017-12-23T19:34:32.414Z,9.00
2017-12-23T19:37:00.816Z,8.90
2017-12-23T19:39:29.911Z,9.00
2017-12-23T19:41:58.353Z,9.00
2017-12-23T19:44:26.799Z,8.90
2017-12-23T19:46:55.234Z,9.00
2017-12-23T19:49:23.681Z,8.90
2017-12-23T19:51:52.831Z,9.00
2017-12-23T19:54:21.651Z,8.90
2017-12-23T19:56:50.799Z,8.90
2017-12-23T19:59:19.187Z,8.90
2017-12-23T20:01:48.021Z,8.90
2017-12-23T20:04:16.413Z,8.90
2017-12-23T20:06:45.813Z,8.90
2017-12-23T20:09:15.093Z,8.90
2017-12-23T20:11:43.500Z,8.90
2017-12-23T20:14:12.640Z,8.90
2017-12-23T20:16:41.092Z,8.90
2017-12-23T20:19:09.508Z,8.90
2017-12-23T20:21:37.903Z,8.90
2017-12-23T20:24:06.466Z,8.90
2017-12-23T20:26:34.855Z,8.90
2017-12-23T20:29:03.256Z,8.90
2017-12-23T20:31:32.775Z,8.90
2017-12-23T20:34:01.939Z,8.90
2017-12-23T20:36:30.310Z,8.90
2017-12-23T20:38:58.726Z,8.90
2017-12-23T20:41:28.079Z,8.90
2017-12-23T20:43:56.517Z,8.90
2017-12-23T20:46:25.721Z,8.90
2017-12-23T20:48:54.163Z,8.90
2017-12-23T20:51:22.578Z,8.90
2017-12-23T20:53:50.991Z,8.90
2017-12-23T20:56:19.435Z,8.90
2017-12-23T20:58:47.816Z,8.90
2017-12-23T21:01:16.553Z,8.80
2017-12-23T21:03:45.011Z,8.90
2017-12-23T21:06:13.484Z,8.90
2017-12-23T21:08:42.018Z,8.90
2017-12-23T21:11:10.397Z,8.80
2017-12-23T21:13:38.782Z,8.80
2017-12-23T21:16:07.561Z,8.80
2017-12-23T21:18:35.925Z,8.80
2017-12-23T21:21:04.478Z,8.80
2017-12-23T21:23:33.793Z,8.80
2017-12-23T21:26:02.187Z,8.80
2017-12-23T21:28:30.586Z,8.90
2017-12-23T21:30:59.060Z,8.90
2017-12-23T21:33:28.287Z,8.80
2017-12-23T21:35:57.445Z,8.80
2017-12-23T21:38:26.005Z,8.80
2017-12-23T21:40:54.388Z,8.80
2017-12-23T21:43:23.278Z,8.80
2017-12-23T21:45:51.789Z,8.80
2017-12-23T21:48:20.182Z,8.80
2017-12-23T21:50:49.345Z,8.80
2017-12-23T21:53:17.853Z,8.80
2017-12-23T21:55:47.005Z,8.80
2017-12-23T21:58:15.405Z,8.80
2017-12-23T22:00:44.009Z,8.80
2017-12-23T22:03:12.402Z,8.80
2017-12-23T22:05:41.568Z,8.80
2017-12-23T22:08:10.173Z,8.80
2017-12-23T22:10:39.421Z,8.80
2017-12-23T22:13:07.806Z,8.80
2017-12-23T22:15:36.348Z,8.80
2017-12-23T22:18:05.499Z,8.80
2017-12-23T22:20:34.045Z,8.70
2017-12-23T22:23:02.483Z,8.80
2017-12-23T22:25:30.890Z,8.80
2017-12-23T22:28:00.077Z,8.80
2017-12-23T22:30:29.268Z,8.80
2017-12-23T22:32:57.656Z,8.80
2017-12-23T22:35:27.225Z,8.80
2017-12-23T22:37:55.718Z,8.80
2017-12-23T22:40:24.088Z,8.80
2017-12-23T22:42:52.519Z,8.70
2017-12-23T22:45:21.228Z,8.70
2017-12-23T22:47:49.652Z,8.70
2017-12-23T22:50:18.049Z,8.70
2017-12-23T22:52:47.251Z,8.70
2017-12-23T22:55:16.395Z,8.70
2017-12-23T22:57:44.814Z,8.70
2017-12-23T23:00:13.520Z,8.70
2017-12-23T23:02:42.675Z,8.70
2017-12-23T23:05:11.084Z,8.70
2017-12-23T23:07:40.369Z,8.70
2017-12-23T23:10:08.770Z,8.70
2017-12-23T23:12:37.957Z,8.60
2017-12-23T23:15:07.245Z,8.60
2017-12-23T23:17:35.650Z,8.60
2017-12-23T23:20:04.062Z,8.60
2017-12-23T23:22:32.608Z,8.60
2017-12-23T23:25:01.367Z,8.60
2017-12-23T23:27:30.249Z,8.60
2017-12-23T23:29:58.739Z,8.60
2017-12-23T23:32:27.719Z,8.60
2017-12-23T23:34:56.140Z,8.60
2017-12-23T23:37:25.442Z,8.60
2017-12-23T23:39:54.596Z,8.60
2017-12-23T23:42:22.975Z,8.60
2017-12-23T23:44:51.519Z,8.60
2017-12-23T23:47:20.128Z,8.60
2017-12-23T23:49:48.520Z,8.60
2017-12-23T23:52:17.017Z,8.60
2017-12-23T23:54:45.450Z,8.60
2017-12-23T23:57:14.589Z,8.60
2017-12-23T23:59:43.146Z,8.60
